Time;durP1;ratioP1;P1;durP2;ratioP2;P2;SDS_P1;SDS_P2;PMS_P1;PMS_P2;Temp;Humidity;BMP_temperature;BMP_pressure;BME280_temperature;BME280_humidity;BME280_pressure;Samples;Min_cycle;Max_cycle;Signal;HPM_P1;HPM_P2
2022/02/16 00:00:00;;;;;;;2.47;1.50;;;7.00;75.90;;;;;;5005426;28;20197;-88
2022/02/16 00:02:26;;;;;;;2.27;1.73;;;6.90;76.20;;;;;;5007195;28;20627;-88
2022/02/16 00:04:51;;;;;;;2.20;1.83;;;7.00;75.50;;;;;;5004056;28;20231;-89
2022/02/16 00:07:18;;;;;;;3.17;2.00;;;7.00;75.40;;;;;;5004957;28;20221;-88
2022/02/16 00:09:44;;;;;;;3.43;2.50;;;6.90;75.40;;;;;;5010221;28;20217;-89
2022/02/16 00:12:09;;;;;;;2.47;1.70;;;6.90;75.70;;;;;;5008458;28;20190;-89
2022/02/16 00:14:35;;;;;;;4.30;1.90;;;6.90;75.60;;;;;;5005067;28;20193;-88
2022/02/16 00:17:01;;;;;;;2.80;2.20;;;6.90;75.60;;;;;;5011029;28;20308;-89
2022/02/16 00:19:27;;;;;;;2.50;1.80;;;7.00;75.50;;;;;;5010060;28;20212;-88
2022/02/16 00:21:53;;;;;;;4.07;2.10;;;7.10;74.90;;;;;;5012900;28;20197;-88
2022/02/16 00:24:19;;;;;;;3.80;1.90;;;7.00;74.80;;;;;;5008628;28;20197;-88
2022/02/16 00:26:45;;;;;;;4.47;1.70;;;7.10;75.20;;;;;;5009617;28;20193;-88
2022/02/16 00:29:12;;;;;;;4.07;2.10;;;7.10;74.60;;;;;;5007312;28;20229;-88
2022/02/16 00:31:41;;;;;;;2.20;1.70;;;7.10;75.00;;;;;;5005881;28;20349;-87
2022/02/16 00:34:07;;;;;;;3.43;1.80;;;7.10;74.50;;;;;;5007755;28;20365;-89
2022/02/16 00:36:33;;;;;;;6.27;2.27;;;7.10;74.50;;;;;;5010467;28;20303;-89
2022/02/16 00:38:59;;;;;;;3.03;1.90;;;7.10;74.70;;;;;;5029501;28;20426;-89
2022/02/16 00:41:25;;;;;;;3.20;2.00;;;7.20;74.40;;;;;;5021305;28;20202;-88
2022/02/16 00:43:51;;;;;;;3.90;2.43;;;7.10;74.80;;;;;;5007534;28;20481;-88
2022/02/16 00:46:16;;;;;;;3.67;2.37;;;7.10;74.70;;;;;;5002145;28;20205;-89
2022/02/16 00:48:42;;;;;;;2.93;1.90;;;7.10;74.80;;;;;;5008876;28;20209;-88
2022/02/16 00:51:08;;;;;;;1.80;1.70;;;7.10;74.30;;;;;;5002824;28;20256;-88
2022/02/16 00:53:34;;;;;;;3.43;1.83;;;7.10;74.90;;;;;;5001588;28;20201;-88
2022/02/16 00:56:00;;;;;;;1.80;1.70;;;7.10;74.10;;;;;;5015305;28;20201;-88
2022/02/16 00:58:25;;;;;;;2.20;1.50;;;7.10;74.60;;;;;;5004251;28;20217;-88
2022/02/16 01:00:51;;;;;;;2.37;1.80;;;7.20;74.30;;;;;;5004996;28;20202;-89
2022/02/16 01:03:17;;;;;;;3.30;1.70;;;7.10;75.20;;;;;;5002509;28;20196;-88
2022/02/16 01:05:42;;;;;;;2.40;1.63;;;7.10;75.10;;;;;;5034920;28;20549;-88
2022/02/16 01:08:09;;;;;;;2.70;1.87;;;7.10;75.20;;;;;;5003429;28;20217;-88
2022/02/16 01:10:36;;;;;;;4.47;1.70;;;7.20;74.50;;;;;;5009068;28;20630;-88
2022/02/16 01:13:02;;;;;;;1.83;1.57;;;7.20;75.60;;;;;;5005442;28;20198;-88
2022/02/16 01:15:28;;;;;;;2.27;1.50;;;7.10;76.80;;;;;;5005461;28;20550;-88
2022/02/16 01:17:54;;;;;;;2.37;1.50;;;7.20;75.80;;;;;;5001026;28;20240;-88
2022/02/16 01:20:20;;;;;;;2.07;1.60;;;7.20;76.50;;;;;;4997021;28;20208;-88
2022/02/16 01:22:46;;;;;;;2.13;1.80;;;7.20;75.90;;;;;;5014638;28;20208;-88
2022/02/16 01:25:12;;;;;;;3.20;1.60;;;7.10;77.40;;;;;;5013768;28;20682;-89
2022/02/16 01:27:38;;;;;;;2.63;1.67;;;7.20;78.10;;;;;;5001857;28;20301;-89
2022/02/16 01:30:06;;;;;;;4.07;1.60;;;7.20;78.80;;;;;;5002096;28;20279;-89
2022/02/16 01:32:31;;;;;;;2.33;1.50;;;7.20;79.70;;;;;;5002750;28;20201;-89
2022/02/16 01:34:57;;;;;;;2.10;1.60;;;7.10;79.50;;;;;;5010509;28;20209;-88
2022/02/16 01:37:23;;;;;;;2.20;1.60;;;7.00;81.80;;;;;;5000878;28;20612;-89
2022/02/16 01:39:48;;;;;;;3.23;1.63;;;7.00;81.90;;;;;;5005945;28;20197;-88
2022/02/16 01:42:16;;;;;;;2.73;1.30;;;7.00;83.00;;;;;;4999713;28;20186;-89
2022/02/16 01:44:41;;;;;;;2.17;1.63;;;6.90;84.10;;;;;;5001941;28;20277;-88
2022/02/16 01:47:07;;;;;;;2.07;1.50;;;6.90;86.20;;;;;;5005307;28;20340;-88
2022/02/16 01:49:33;;;;;;;3.63;2.20;;;6.90;85.30;;;;;;5002936;28;20251;-89
2022/02/16 01:51:59;;;;;;;3.37;2.17;;;6.90;86.40;;;;;;5001660;28;20265;-89
2022/02/16 01:54:25;;;;;;;2.23;1.80;;;6.80;87.10;;;;;;5008761;28;20691;-88
2022/02/16 01:56:51;;;;;;;2.40;1.67;;;6.80;89.20;;;;;;5006160;28;20214;-88
2022/02/16 01:59:22;;;;;;;2.33;1.70;;;6.80;90.20;;;;;;5017582;28;20268;-88
2022/02/16 02:01:48;;;;;;;2.93;1.20;;;6.70;91.80;;;;;;5018173;28;20189;-88
2022/02/16 02:04:15;;;;;;;2.43;1.40;;;6.70;91.60;;;;;;5019941;28;20253;-88
2022/02/16 02:06:41;;;;;;;2.80;1.77;;;6.70;92.50;;;;;;5013847;28;20200;-88
2022/02/16 02:09:07;;;;;;;1.53;1.43;;;6.60;94.50;;;;;;5007249;28;20214;-89
2022/02/16 02:11:32;;;;;;;3.07;1.53;;;6.60;95.10;;;;;;5008714;28;20282;-88
2022/02/16 02:14:01;;;;;;;2.27;1.50;;;6.50;96.50;;;;;;5021929;28;20221;-88
2022/02/16 02:16:27;;;;;;;3.40;1.60;;;6.50;97.20;;;;;;5024244;28;20221;-88
2022/02/16 02:18:53;;;;;;;2.43;1.50;;;6.50;97.40;;;;;;5026567;28;20248;-89
2022/02/16 02:21:20;;;;;;;4.63;1.53;;;6.50;98.30;;;;;;5020060;28;20193;-90
2022/02/16 02:23:46;;;;;;;2.47;1.63;;;6.50;99.90;;;;;;5017402;28;20638;-89
2022/02/16 02:26:12;;;;;;;2.50;1.60;;;6.50;98.40;;;;;;5009031;28;20221;-89
2022/02/16 02:28:38;;;;;;;2.03;1.50;;;6.40;97.80;;;;;;5016579;28;20227;-88
2022/02/16 02:31:04;;;;;;;2.57;1.50;;;6.40;98.60;;;;;;5018465;28;20205;-89
2022/02/16 02:33:30;;;;;;;2.53;1.37;;;6.40;99.90;;;;;;5004954;28;20181;-88
2022/02/16 02:35:56;;;;;;;2.40;1.50;;;6.40;99.90;;;;;;5019670;28;20580;-88
2022/02/16 02:38:23;;;;;;;2.23;1.50;;;6.30;99.90;;;;;;5013309;28;20213;-89
2022/02/16 02:40:53;;;;;;;1.83;1.50;;;6.30;99.90;;;;;;5010462;28;20186;-90
2022/02/16 02:43:20;;;;;;;2.00;1.60;;;6.30;99.90;;;;;;5013136;28;20201;-89
2022/02/16 02:45:46;;;;;;;3.20;1.83;;;6.30;99.90;;;;;;5009834;28;20533;-89
2022/02/16 02:48:12;;;;;;;2.07;1.37;;;6.20;99.90;;;;;;4999949;28;20226;-89
2022/02/16 02:50:37;;;;;;;3.17;1.70;;;6.30;99.90;;;;;;5007246;28;20205;-89
2022/02/16 02:53:03;;;;;;;2.57;1.33;;;6.30;99.90;;;;;;5006978;28;20322;-88
2022/02/16 02:55:28;;;;;;;2.37;1.70;;;6.40;99.90;;;;;;5003491;28;20198;-89
2022/02/16 02:57:54;;;;;;;3.47;1.53;;;6.30;99.90;;;;;;5003893;28;20226;-88
2022/02/16 03:00:20;;;;;;;1.67;1.37;;;6.30;99.90;;;;;;5008640;28;20186;-89
2022/02/16 03:02:45;;;;;;;3.00;1.50;;;6.40;99.90;;;;;;5010283;28;20209;-88
2022/02/16 03:05:12;;;;;;;2.50;1.57;;;6.40;99.20;;;;;;5011291;28;20224;-88
2022/02/16 03:07:41;;;;;;;7.77;1.50;;;6.40;99.90;;;;;;5009728;28;20217;-89
2022/02/16 03:10:07;;;;;;;4.53;1.70;;;6.40;99.90;;;;;;5007184;28;20279;-89
2022/02/16 03:12:33;;;;;;;1.60;1.40;;;6.40;99.90;;;;;;5006062;28;20817;-89
2022/02/16 03:14:59;;;;;;;1.67;1.40;;;6.50;99.50;;;;;;5003379;28;20206;-89
2022/02/16 03:17:26;;;;;;;2.07;1.53;;;6.40;99.90;;;;;;5006501;28;20218;-88
2022/02/16 03:19:51;;;;;;;1.50;1.40;;;6.50;99.90;;;;;;4999953;28;20189;-88
2022/02/16 03:22:19;;;;;;;1.07;1.00;;;6.40;98.30;;;;;;5010644;28;20603;-89
2022/02/16 03:24:45;;;;;;;3.90;1.70;;;6.50;99.70;;;;;;5018452;28;20225;-89
2022/02/16 03:27:11;;;;;;;3.17;1.60;;;6.50;99.90;;;;;;5021901;28;20201;-88
2022/02/16 03:29:37;;;;;;;2.87;1.50;;;6.40;99.90;;;;;;5015300;28;20189;-89
2022/02/16 03:32:03;;;;;;;1.80;1.27;;;6.50;99.90;;;;;;5014284;28;20221;-89
2022/02/16 03:34:29;;;;;;;1.70;1.30;;;6.40;99.90;;;;;;5012935;28;20194;-88
2022/02/16 03:36:54;;;;;;;2.40;1.10;;;6.50;99.90;;;;;;5018515;28;20222;-88
2022/02/16 03:39:20;;;;;;;1.90;1.23;;;6.50;99.90;;;;;;5017597;28;20186;-89
2022/02/16 03:41:46;;;;;;;1.50;1.40;;;6.50;99.90;;;;;;5014421;28;20263;-89
2022/02/16 03:44:12;;;;;;;1.67;1.30;;;6.50;99.90;;;;;;5017201;28;20200;-89
2022/02/16 03:46:37;;;;;;;4.27;1.30;;;6.50;99.90;;;;;;5020208;28;20201;-89
2022/02/16 03:49:03;;;;;;;2.83;1.30;;;6.60;99.90;;;;;;5017624;28;20221;-89
2022/02/16 03:51:29;;;;;;;1.50;1.27;;;6.50;99.90;;;;;;5020431;28;20189;-89
2022/02/16 03:53:55;;;;;;;2.83;1.50;;;6.50;99.90;;;;;;5018962;28;20198;-89
2022/02/16 03:56:21;;;;;;;2.87;1.47;;;6.50;99.90;;;;;;5020371;28;20212;-89
2022/02/16 03:58:47;;;;;;;1.77;1.10;;;6.50;99.90;;;;;;5015246;28;20221;-89
2022/02/16 04:01:13;;;;;;;2.10;1.10;;;6.50;99.90;;;;;;5015991;28;20190;-89
2022/02/16 04:03:39;;;;;;;1.80;1.17;;;6.60;99.90;;;;;;5011155;28;20181;-88
2022/02/16 04:06:05;;;;;;;1.47;1.20;;;6.50;99.90;;;;;;5019598;28;20277;-86
2022/02/16 04:08:31;;;;;;;3.00;1.37;;;6.60;99.90;;;;;;5018330;28;20255;-86
2022/02/16 04:10:56;;;;;;;2.93;1.20;;;6.60;99.90;;;;;;5016032;28;20631;-88
2022/02/16 04:13:22;;;;;;;2.17;1.23;;;6.70;99.60;;;;;;5013860;28;20206;-89
2022/02/16 04:15:47;;;;;;;1.40;1.30;;;6.60;99.70;;;;;;5010697;28;20189;-90
2022/02/16 04:18:13;;;;;;;1.63;1.20;;;6.60;99.90;;;;;;5019056;28;20289;-89
2022/02/16 04:20:39;;;;;;;1.33;1.13;;;6.60;99.90;;;;;;5017841;28;20185;-88
2022/02/16 04:23:05;;;;;;;1.70;1.60;;;6.60;99.90;;;;;;5015634;28;20189;-89
2022/02/16 04:25:31;;;;;;;3.80;1.27;;;6.60;99.50;;;;;;5014065;28;20284;-88
2022/02/16 04:27:57;;;;;;;1.20;1.10;;;6.70;98.70;;;;;;5011584;28;20269;-88
2022/02/16 04:30:23;;;;;;;2.20;1.20;;;6.70;98.40;;;;;;5023991;28;20209;-88
2022/02/16 04:32:48;;;;;;;2.77;1.20;;;6.70;99.90;;;;;;5017394;28;20687;-88
2022/02/16 04:35:14;;;;;;;1.40;1.00;;;6.60;99.70;;;;;;4994316;28;20299;-88
2022/02/16 04:37:40;;;;;;;2.33;1.30;;;6.70;99.80;;;;;;5031056;28;20787;-88
2022/02/16 04:40:06;;;;;;;2.47;1.20;;;6.60;99.90;;;;;;5012844;28;20201;-88
2022/02/16 04:42:32;;;;;;;2.20;1.30;;;6.70;99.20;;;;;;5005622;28;20193;-88
2022/02/16 04:44:58;;;;;;;1.10;1.10;;;6.80;98.90;;;;;;5015123;28;20185;-88
2022/02/16 04:47:23;;;;;;;3.17;1.43;;;6.70;98.70;;;;;;5013382;28;20760;-88
2022/02/16 04:49:49;;;;;;;1.37;1.27;;;6.80;98.20;;;;;;5009357;28;20201;-88
2022/02/16 04:52:15;;;;;;;1.50;1.17;;;6.80;98.40;;;;;;5005414;28;20194;-86
2022/02/16 04:54:40;;;;;;;1.20;0.90;;;6.80;98.60;;;;;;5015633;28;20308;-88
2022/02/16 04:57:06;;;;;;;2.00;1.30;;;6.80;98.30;;;;;;5005338;28;20236;-88
2022/02/16 04:59:32;;;;;;;1.93;0.97;;;6.70;98.80;;;;;;5018272;28;20186;-89
2022/02/16 05:01:58;;;;;;;1.37;1.10;;;6.90;97.70;;;;;;5010042;28;20202;-86
2022/02/16 05:04:23;;;;;;;1.43;1.10;;;6.90;97.70;;;;;;5012352;28;20190;-87
2022/02/16 05:06:49;;;;;;;1.40;1.30;;;6.90;98.00;;;;;;5016802;28;20692;-87
2022/02/16 05:09:15;;;;;;;2.90;1.30;;;6.90;97.70;;;;;;5009586;28;20272;-89
2022/02/16 05:11:40;;;;;;;2.67;1.30;;;7.00;98.00;;;;;;5016586;28;20232;-87
2022/02/16 05:14:06;;;;;;;1.07;1.00;;;7.00;98.30;;;;;;5009262;28;20201;-87
2022/02/16 05:16:31;;;;;;;1.50;1.10;;;7.00;96.90;;;;;;5009874;28;20218;-87
2022/02/16 05:18:59;;;;;;;1.00;1.00;;;7.10;97.20;;;;;;5020847;28;20210;-87
2022/02/16 05:21:25;;;;;;;1.53;1.20;;;7.10;97.70;;;;;;5019161;28;20225;-87
2022/02/16 05:23:51;;;;;;;1.93;1.00;;;7.10;97.80;;;;;;5050298;28;20679;-88
2022/02/16 05:26:17;;;;;;;1.53;1.03;;;7.10;97.40;;;;;;5013108;28;20224;-87
2022/02/16 05:28:43;;;;;;;2.83;1.33;;;7.20;96.10;;;;;;5042563;28;20700;-87
2022/02/16 05:31:09;;;;;;;1.73;1.00;;;7.20;97.30;;;;;;5016200;28;20248;-86
2022/02/16 05:33:36;;;;;;;1.63;1.10;;;7.10;96.60;;;;;;5011612;28;20190;-86
2022/02/16 05:36:05;;;;;;;1.17;1.07;;;7.20;97.20;;;;;;5010520;28;20202;-86
2022/02/16 05:38:30;;;;;;;1.47;1.20;;;7.30;96.50;;;;;;5027868;28;20234;-85
2022/02/16 05:40:56;;;;;;;0.90;0.90;;;7.20;97.50;;;;;;5017894;28;20197;-86
2022/02/16 05:43:22;;;;;;;4.70;0.93;;;7.20;96.90;;;;;;5016366;28;20205;-87
2022/02/16 05:45:48;;;;;;;1.73;1.00;;;7.20;97.70;;;;;;5044695;28;20200;-86
2022/02/16 05:48:20;;;;;;;0.87;0.80;;;7.20;98.40;;;;;;5016628;28;20221;-87
2022/02/16 05:50:49;;;;;;;1.23;1.00;;;7.30;97.50;;;;;;5008721;28;20293;-87
2022/02/16 05:53:16;;;;;;;1.20;1.10;;;7.30;98.30;;;;;;5011853;28;20281;-87
2022/02/16 05:55:42;;;;;;;1.27;0.90;;;7.20;98.60;;;;;;5007971;28;20209;-87
2022/02/16 05:58:07;;;;;;;1.03;0.97;;;7.30;98.60;;;;;;5005789;28;20221;-87
2022/02/16 06:00:33;;;;;;;1.73;1.07;;;7.30;98.00;;;;;;5006134;28;20194;-87
2022/02/16 06:02:59;;;;;;;1.07;0.97;;;7.30;97.70;;;;;;5009674;28;20288;-87
2022/02/16 06:05:24;;;;;;;0.80;0.80;;;7.30;99.10;;;;;;5014431;28;20196;-87
2022/02/16 06:07:50;;;;;;;0.80;0.77;;;7.30;98.50;;;;;;4993561;28;20265;-87
2022/02/16 06:10:16;;;;;;;1.30;1.23;;;7.40;98.40;;;;;;5006766;28;20193;-88
2022/02/16 06:12:42;;;;;;;1.10;0.90;;;7.40;98.30;;;;;;5011795;28;20197;-87
2022/02/16 06:15:09;;;;;;;1.10;1.00;;;7.40;98.70;;;;;;5012531;28;20205;-87
2022/02/16 06:17:35;;;;;;;1.00;1.00;;;7.30;98.50;;;;;;5013895;28;20214;-86
2022/02/16 06:20:00;;;;;;;0.73;0.70;;;7.30;99.60;;;;;;5008352;28;20194;-88
2022/02/16 06:22:26;;;;;;;1.23;1.10;;;7.40;98.10;;;;;;5013436;28;20650;-87
2022/02/16 06:24:52;;;;;;;1.17;1.07;;;7.40;98.80;;;;;;5010036;28;20200;-87
2022/02/16 06:27:18;;;;;;;2.33;1.37;;;7.40;99.60;;;;;;5003520;28;20222;-87
2022/02/16 06:29:44;;;;;;;1.30;1.20;;;7.30;99.20;;;;;;5014211;28;20192;-87
2022/02/16 06:32:09;;;;;;;1.07;0.97;;;7.30;99.00;;;;;;5010749;28;20615;-88
2022/02/16 06:34:35;;;;;;;1.00;1.00;;;7.30;99.80;;;;;;5010019;28;20220;-88
2022/02/16 06:37:01;;;;;;;1.57;0.73;;;7.30;99.60;;;;;;5035160;28;20226;-88
2022/02/16 06:39:26;;;;;;;1.10;1.00;;;7.40;99.70;;;;;;5003075;28;20715;-89
2022/02/16 06:41:52;;;;;;;1.00;1.00;;;7.30;99.90;;;;;;5005792;28;20760;-88
2022/02/16 06:44:17;;;;;;;1.20;0.93;;;7.30;99.90;;;;;;5007368;28;20181;-89
2022/02/16 06:46:43;;;;;;;3.03;0.90;;;7.20;99.90;;;;;;5009033;28;20206;-88
2022/02/16 06:49:09;;;;;;;0.73;0.73;;;7.20;99.90;;;;;;5010147;28;20736;-88
2022/02/16 06:51:34;;;;;;;0.93;0.93;;;7.20;99.90;;;;;;5001900;28;20269;-87
2022/02/16 06:54:00;;;;;;;1.63;1.00;;;7.20;99.90;;;;;;5011048;28;20194;-88
2022/02/16 06:56:28;;;;;;;2.23;0.83;;;7.30;99.90;;;;;;5007439;28;20754;-89
2022/02/16 06:58:54;;;;;;;1.00;0.90;;;7.20;99.90;;;;;;5008693;28;20229;-88
2022/02/16 07:01:19;;;;;;;1.07;1.07;;;7.30;99.90;;;;;;5004448;28;20218;-88
2022/02/16 07:03:45;;;;;;;1.43;0.87;;;7.20;99.90;;;;;;5006816;28;20664;-89
2022/02/16 07:06:10;;;;;;;0.80;0.80;;;7.30;99.90;;;;;;5010265;28;20697;-89
2022/02/16 07:08:37;;;;;;;1.23;1.07;;;7.30;99.90;;;;;;5001358;28;20209;-88
2022/02/16 07:11:03;;;;;;;2.43;1.10;;;7.30;99.90;;;;;;5010660;28;20185;-89
2022/02/16 07:13:29;;;;;;;1.90;0.90;;;7.40;99.90;;;;;;5009549;28;20676;-88
2022/02/16 07:15:55;;;;;;;1.23;1.13;;;7.30;99.90;;;;;;5006338;28;20714;-89
2022/02/16 07:18:21;;;;;;;0.90;0.90;;;7.40;99.90;;;;;;5009289;28;20217;-89
2022/02/16 07:20:46;;;;;;;4.60;1.37;;;7.40;99.90;;;;;;5007477;28;20194;-88
2022/02/16 07:23:12;;;;;;;1.00;1.00;;;7.40;99.90;;;;;;5001409;28;20276;-89
2022/02/16 07:25:38;;;;;;;1.47;1.20;;;7.40;99.90;;;;;;5006384;28;20374;-89
2022/02/16 07:28:06;;;;;;;1.57;1.10;;;7.40;99.90;;;;;;5006271;28;20623;-88
2022/02/16 07:30:32;;;;;;;0.83;0.83;;;7.40;99.90;;;;;;5001483;28;20181;-89
2022/02/16 07:32:57;;;;;;;1.43;0.90;;;7.40;99.90;;;;;;5012599;28;20243;-89
2022/02/16 07:35:23;;;;;;;1.33;1.10;;;7.40;99.90;;;;;;4996504;28;20692;-89
2022/02/16 07:37:51;;;;;;;1.00;1.00;;;7.40;99.90;;;;;;5010017;28;20647;-89
2022/02/16 07:40:17;;;;;;;1.77;1.00;;;7.40;99.90;;;;;;4988596;28;20554;-88
2022/02/16 07:42:43;;;;;;;1.37;1.03;;;7.30;99.90;;;;;;5002057;28;20190;-88
2022/02/16 07:45:10;;;;;;;1.23;1.10;;;7.40;99.90;;;;;;5006883;28;20350;-88
2022/02/16 07:47:36;;;;;;;1.07;1.00;;;7.40;99.90;;;;;;5004358;28;20708;-88
2022/02/16 07:50:03;;;;;;;1.37;1.03;;;7.30;99.90;;;;;;5004346;28;20202;-88
2022/02/16 07:52:31;;;;;;;1.17;1.03;;;7.30;99.90;;;;;;5001412;28;20247;-88
2022/02/16 07:54:59;;;;;;;1.00;0.97;;;7.40;99.90;;;;;;5004181;28;20220;-89
2022/02/16 07:57:25;;;;;;;1.07;0.97;;;7.30;99.90;;;;;;4999427;28;20272;-88
2022/02/16 07:59:51;;;;;;;0.90;0.90;;;7.40;99.90;;;;;;5007709;28;20182;-88
2022/02/16 08:02:16;;;;;;;2.03;1.00;;;7.40;99.90;;;;;;5006012;28;20247;-89
2022/02/16 08:04:42;;;;;;;1.00;1.00;;;7.40;99.90;;;;;;5006045;28;20182;-88
2022/02/16 08:07:08;;;;;;;1.83;1.37;;;7.50;99.90;;;;;;5004011;28;20660;-88
2022/02/16 08:09:33;;;;;;;0.87;0.60;;;7.50;99.90;;;;;;5011246;28;20281;-88
2022/02/16 08:11:59;;;;;;;0.80;0.80;;;7.50;99.90;;;;;;5008523;28;20181;-88
2022/02/16 08:14:26;;;;;;;2.17;1.43;;;7.50;99.90;;;;;;5021174;28;20189;-88
2022/02/16 08:16:56;;;;;;;3.63;1.10;;;7.60;99.90;;;;;;5013944;28;20212;-87
2022/02/16 08:19:23;;;;;;;1.17;0.80;;;7.60;99.90;;;;;;5037088;28;20213;-88
2022/02/16 08:21:49;;;;;;;0.97;0.97;;;7.50;99.90;;;;;;5030272;28;20206;-90
2022/02/16 08:24:15;;;;;;;1.77;1.00;;;7.60;99.90;;;;;;5053331;28;20190;-88
2022/02/16 08:26:41;;;;;;;1.10;1.00;;;7.70;99.90;;;;;;5034542;28;20232;-88
2022/02/16 08:29:07;;;;;;;0.87;0.87;;;7.70;99.90;;;;;;5032524;28;20213;-89
2022/02/16 08:31:33;;;;;;;1.00;1.00;;;7.70;99.90;;;;;;5032728;28;20193;-88
2022/02/16 08:33:58;;;;;;;0.90;0.80;;;7.60;99.90;;;;;;5032545;28;20247;-88
2022/02/16 08:36:24;;;;;;;1.60;1.03;;;7.70;99.90;;;;;;5031606;28;20220;-88
2022/02/16 08:38:50;;;;;;;1.63;1.03;;;7.70;99.90;;;;;;5029434;28;20265;-89
2022/02/16 08:41:16;;;;;;;0.93;0.93;;;7.80;99.90;;;;;;5010653;28;20229;-89
2022/02/16 08:43:42;;;;;;;1.13;1.10;;;7.70;99.90;;;;;;5027944;28;20253;-89
2022/02/16 08:46:08;;;;;;;0.90;0.90;;;7.80;99.90;;;;;;5028024;28;20198;-89
2022/02/16 08:48:34;;;;;;;1.30;1.13;;;7.80;99.90;;;;;;5013442;28;20248;-88
2022/02/16 08:51:00;;;;;;;1.03;0.93;;;7.80;99.90;;;;;;5029706;28;20194;-88
2022/02/16 08:53:27;;;;;;;1.30;1.03;;;7.90;99.90;;;;;;5030862;28;20207;-89
2022/02/16 08:55:54;;;;;;;1.10;1.00;;;7.90;99.90;;;;;;5025393;28;20186;-87
2022/02/16 08:58:21;;;;;;;1.60;1.00;;;8.00;99.90;;;;;;5023548;28;20201;-88
2022/02/16 09:00:49;;;;;;;1.20;1.10;;;8.00;99.90;;;;;;5030621;28;20182;-89
2022/02/16 09:03:15;;;;;;;0.83;0.83;;;8.10;99.90;;;;;;5032595;28;20181;-88
2022/02/16 09:05:41;;;;;;;1.00;1.00;;;8.10;99.90;;;;;;5026333;28;20658;-88
2022/02/16 09:08:07;;;;;;;0.90;0.90;;;8.10;99.90;;;;;;5026790;28;20206;-86
2022/02/16 09:10:32;;;;;;;1.10;1.00;;;8.10;99.90;;;;;;5019334;28;20572;-87
2022/02/16 09:12:58;;;;;;;0.90;0.90;;;8.20;99.90;;;;;;5055601;28;20186;-88
2022/02/16 09:15:26;;;;;;;1.13;0.80;;;8.20;99.90;;;;;;5022787;28;20240;-88
2022/02/16 09:17:56;;;;;;;1.80;1.03;;;8.20;99.90;;;;;;5011215;28;20221;-88
2022/02/16 09:20:23;;;;;;;0.93;0.93;;;8.20;99.90;;;;;;5033035;28;20172;-88
2022/02/16 09:22:50;;;;;;;1.30;0.90;;;8.30;99.90;;;;;;5015961;28;20667;-88
2022/02/16 09:25:16;;;;;;;0.83;0.83;;;8.40;99.90;;;;;;5015997;28;20273;-88
2022/02/16 09:27:43;;;;;;;0.90;0.90;;;8.50;99.90;;;;;;5033858;28;20205;-88
2022/02/16 09:30:10;;;;;;;1.33;1.00;;;8.40;99.90;;;;;;5035724;28;20228;-89
2022/02/16 09:32:37;;;;;;;0.80;0.80;;;8.50;99.90;;;;;;5034996;28;20181;-88
2022/02/16 09:35:03;;;;;;;0.87;0.87;;;8.50;99.90;;;;;;5027231;28;20202;-88
2022/02/16 09:37:29;;;;;;;1.00;1.00;;;8.60;99.90;;;;;;5026781;28;20228;-89
2022/02/16 09:39:55;;;;;;;1.60;0.87;;;8.70;99.90;;;;;;5034400;28;20186;-88
2022/02/16 09:42:20;;;;;;;0.90;0.90;;;8.70;99.90;;;;;;5048941;28;20209;-89
2022/02/16 09:45:01;;;;;;;2.40;1.60;;;8.80;99.90;;;;;;5033450;28;20202;-88
2022/02/16 09:47:29;;;;;;;0.90;0.90;;;8.90;99.90;;;;;;5035846;28;20205;-88
2022/02/16 09:49:55;;;;;;;0.80;0.80;;;8.90;99.60;;;;;;5037029;28;20169;-88
2022/02/16 09:52:21;;;;;;;0.90;0.90;;;9.00;99.90;;;;;;5036784;28;20204;-87
2022/02/16 09:54:48;;;;;;;0.90;0.90;;;8.90;99.90;;;;;;5033809;28;20311;-88
2022/02/16 09:57:14;;;;;;;0.70;0.70;;;8.90;99.90;;;;;;5036345;28;20228;-88
2022/02/16 09:59:40;;;;;;;1.00;1.00;;;9.00;98.50;;;;;;5025475;28;20181;-90
2022/02/16 10:02:12;;;;;;;1.07;0.83;;;8.90;99.70;;;;;;5034200;28;20237;-88
2022/02/16 10:04:41;;;;;;;0.63;0.63;;;9.00;99.90;;;;;;5014171;28;20638;-88
2022/02/16 10:07:27;;;;;;;0.80;0.80;;;9.10;98.60;;;;;;5035862;28;20181;-89
2022/02/16 10:09:53;;;;;;;0.93;0.90;;;9.20;99.90;;;;;;5028361;28;20194;-88
2022/02/16 10:12:29;;;;;;;0.80;0.80;;;9.20;99.30;;;;;;5024354;28;20217;-89
2022/02/16 10:14:54;;;;;;;0.77;0.77;;;9.20;98.30;;;;;;5027436;28;20197;-89
2022/02/16 10:17:26;;;;;;;0.90;0.90;;;9.30;99.20;;;;;;5030222;28;20229;-89
2022/02/16 10:19:57;;;;;;;1.87;0.90;;;9.40;98.80;;;;;;5035519;28;20680;-89
2022/02/16 10:22:25;;;;;;;1.10;1.00;;;9.40;98.70;;;;;;5034562;28;20190;-88
2022/02/16 10:24:51;;;;;;;1.17;0.90;;;9.50;99.10;;;;;;5028420;28;20201;-88
2022/02/16 10:27:18;;;;;;;0.83;0.83;;;9.60;98.50;;;;;;5035233;28;20240;-88
2022/02/16 10:29:45;;;;;;;0.90;0.90;;;9.70;98.80;;;;;;5015954;28;20197;-89
2022/02/16 10:32:29;;;;;;;1.13;0.80;;;9.70;99.10;;;;;;5010686;28;20233;-88
2022/02/16 10:34:58;;;;;;;0.90;0.90;;;9.80;98.10;;;;;;5008349;28;20186;-90
2022/02/16 10:37:33;;;;;;;1.00;1.00;;;9.80;99.90;;;;;;5027618;28;20225;-88
2022/02/16 10:40:10;;;;;;;0.83;0.83;;;10.00;97.70;;;;;;5027703;28;20201;-89
2022/02/16 10:42:40;;;;;;;0.97;0.97;;;10.30;97.20;;;;;;5025208;28;20204;-89
2022/02/16 10:45:10;;;;;;;1.63;1.00;;;10.20;97.70;;;;;;5014658;28;20177;-90
2022/02/16 10:48:02;;;;;;;0.80;0.80;;;10.30;97.60;;;;;;5010611;28;20245;-88
2022/02/16 10:50:34;;;;;;;1.00;0.80;;;10.30;97.00;;;;;;5006381;28;20190;-88
2022/02/16 10:53:02;;;;;;;1.70;0.90;;;10.30;98.10;;;;;;4998865;28;20194;-87
2022/02/16 10:55:36;;;;;;;0.70;0.70;;;10.30;98.00;;;;;;5001886;28;20543;-88
2022/02/16 10:58:13;;;;;;;0.90;0.90;;;10.20;97.50;;;;;;5005685;28;20217;-88
2022/02/16 11:00:42;;;;;;;0.90;0.90;;;10.10;99.40;;;;;;4999783;28;20177;-88
2022/02/16 11:03:09;;;;;;;0.90;0.90;;;10.20;97.30;;;;;;5037005;28;20285;-88
2022/02/16 11:05:45;;;;;;;1.00;1.00;;;10.20;98.30;;;;;;5006759;28;20190;-89
2022/02/16 11:08:15;;;;;;;1.10;1.10;;;9.90;99.90;;;;;;5005414;28;20333;-88
2022/02/16 11:10:44;;;;;;;1.00;0.90;;;10.00;99.90;;;;;;5000684;28;20284;-90
2022/02/16 11:13:11;;;;;;;1.00;0.90;;;9.90;99.90;;;;;;5005684;28;20627;-89
2022/02/16 11:15:38;;;;;;;0.80;0.80;;;9.80;99.90;;;;;;5004415;28;20252;-89
2022/02/16 11:18:10;;;;;;;1.00;1.00;;;9.80;99.90;;;;;;5008959;28;20271;-89
2022/02/16 11:20:36;;;;;;;1.20;1.10;;;9.70;99.90;;;;;;4996320;28;20190;-89
2022/02/16 11:23:02;;;;;;;1.27;1.00;;;9.60;99.90;;;;;;5039146;28;20220;-89
2022/02/16 11:25:34;;;;;;;1.73;1.10;;;9.70;99.90;;;;;;5003175;28;20232;-89
2022/02/16 11:28:01;;;;;;;1.13;1.03;;;9.60;99.90;;;;;;5006882;28;20214;-89
2022/02/16 11:30:33;;;;;;;0.90;0.90;;;9.60;99.90;;;;;;5007114;28;20208;-89
2022/02/16 11:33:21;;;;;;;1.07;1.07;;;9.50;99.90;;;;;;5005304;28;20201;-89
2022/02/16 11:35:59;;;;;;;0.97;0.97;;;9.40;99.90;;;;;;5001185;28;20259;-89
2022/02/16 11:38:39;;;;;;;2.23;1.10;;;9.50;99.90;;;;;;5009898;28;20274;-89
2022/02/16 11:41:23;;;;;;;0.93;0.93;;;9.40;99.90;;;;;;5003697;28;20704;-89
2022/02/16 11:44:05;;;;;;;1.63;1.00;;;9.20;99.90;;;;;;5010652;28;20205;-90
2022/02/16 11:46:47;;;;;;;1.10;1.10;;;9.30;99.90;;;;;;5009943;28;20584;-89
2022/02/16 11:49:29;;;;;;;1.07;1.00;;;9.20;99.90;;;;;;5010027;28;20294;-89
2022/02/16 11:51:56;;;;;;;1.00;1.00;;;9.30;99.90;;;;;;5009489;28;20224;-89
2022/02/16 11:54:43;;;;;;;0.87;0.87;;;9.40;99.90;;;;;;5016426;28;20198;-89
2022/02/16 11:57:32;;;;;;;0.90;0.90;;;9.20;99.90;;;;;;5017953;28;20220;-89
2022/02/16 12:00:08;;;;;;;1.00;1.00;;;9.20;99.90;;;;;;5006773;28;20199;-89
2022/02/16 12:02:54;;;;;;;1.00;1.00;;;9.30;99.90;;;;;;5003558;28;20205;-89
2022/02/16 12:06:00;;;;;;;1.23;1.00;;;9.40;99.90;;;;;;5000830;28;20644;-89
2022/02/16 12:08:47;;;;;;;1.57;1.47;;;9.30;99.90;;;;;;5008014;28;20632;-89
2022/02/16 12:11:12;;;;;;;2.50;1.10;;;9.30;99.90;;;;;;5021551;28;20788;-89
2022/02/16 12:13:40;;;;;;;1.30;1.20;;;9.30;99.90;;;;;;5007014;28;20226;-89
2022/02/16 12:16:09;;;;;;;1.30;1.20;;;9.20;99.90;;;;;;5007102;28;20245;-88
2022/02/16 12:18:37;;;;;;;1.00;1.00;;;9.30;99.90;;;;;;5041320;28;20264;-89
2022/02/16 12:21:04;;;;;;;1.70;1.17;;;9.30;99.90;;;;;;5008777;28;20217;-89
2022/02/16 12:23:35;;;;;;;1.23;1.17;;;9.30;99.90;;;;;;5000257;28;20195;-89
2022/02/16 12:26:07;;;;;;;1.00;1.00;;;9.20;99.90;;;;;;4999507;28;20502;-89
2022/02/16 12:28:56;;;;;;;1.03;1.03;;;9.20;99.90;;;;;;5009547;28;20209;-88
2022/02/16 12:31:30;;;;;;;1.00;1.00;;;9.30;99.90;;;;;;5005439;28;20819;-88
2022/02/16 12:33:57;;;;;;;1.20;1.10;;;9.30;99.90;;;;;;5003149;28;20194;-89
2022/02/16 12:36:24;;;;;;;1.10;1.10;;;9.20;99.90;;;;;;5007829;28;20228;-89
2022/02/16 12:38:53;;;;;;;1.30;1.20;;;9.30;99.90;;;;;;5018036;28;20739;-89
2022/02/16 12:41:20;;;;;;;1.33;1.20;;;9.30;99.90;;;;;;5003832;28;20201;-89
2022/02/16 12:44:03;;;;;;;1.20;1.20;;;9.40;99.90;;;;;;5002164;28;20194;-89
2022/02/16 12:46:32;;;;;;;1.63;1.20;;;9.50;99.90;;;;;;5005364;28;20278;-89
2022/02/16 12:48:58;;;;;;;1.20;1.17;;;9.50;99.90;;;;;;5009218;28;20232;-89
2022/02/16 12:51:28;;;;;;;1.10;1.10;;;9.50;99.90;;;;;;5006406;28;20194;-89
2022/02/16 12:53:57;;;;;;;1.53;1.30;;;9.40;99.90;;;;;;5005758;28;20217;-90
2022/02/16 12:56:23;;;;;;;2.73;1.40;;;9.50;99.90;;;;;;5036913;28;20224;-89
2022/02/16 12:58:50;;;;;;;1.20;1.20;;;9.50;99.90;;;;;;5002909;28;20692;-89